Time;durP1;ratioP1;P1;durP2;ratioP2;P2;SDS_P1;SDS_P2;PMS_P1;PMS_P2;Temp;Humidity;BMP_temperature;BMP_pressure;BME280_temperature;BME280_humidity;BME280_pressure;Samples;Min_cycle;Max_cycle;Signal;HPM_P1;HPM_P2
2021/11/03 00:04:34;;;;;;;15.3;18.7;;;;;;;8.4;80.3;97690;;;;
2021/11/03 00:14:34;;;;;;;15.3;18.7;;;;;;;8.3;80.2;97690;;;;
2021/11/03 00:24:34;;;;;;;15.3;18.7;;;;;;;8.3;79.9;97700;;;;
2021/11/03 00:34:34;;;;;;;14.9;19.2;;;;;;;8.2;80.1;97720;;;;
2021/11/03 00:44:34;;;;;;;14.9;19.2;;;;;;;8.2;80.1;97740;;;;
2021/11/03 00:54:34;;;;;;;14.9;19.2;;;;;;;7.9;79.8;97750;;;;
2021/11/03 01:04:34;;;;;;;12.7;16;;;;;;;7.8;80.1;97760;;;;
2021/11/03 01:14:34;;;;;;;12.7;16;;;;;;;7.8;80.4;97760;;;;
2021/11/03 01:24:34;;;;;;;12.7;16;;;;;;;7.7;80.6;97770;;;;
2021/11/03 01:34:34;;;;;;;14.2;17.2;;;;;;;7.4;80.2;97750;;;;
2021/11/03 01:44:34;;;;;;;14.2;17.2;;;;;;;7;81;97760;;;;
2021/11/03 01:54:34;;;;;;;14.2;17.2;;;;;;;6.8;79.9;97770;;;;
2021/11/03 02:04:34;;;;;;;11.5;14;;;;;;;6.4;79.7;97760;;;;
2021/11/03 02:14:34;;;;;;;11.5;14;;;;;;;6.2;80.9;97760;;;;
2021/11/03 02:24:34;;;;;;;11.5;14;;;;;;;6;82.2;97780;;;;
2021/11/03 02:34:34;;;;;;;8.7;12.3;;;;;;;6;82.4;97780;;;;
2021/11/03 02:44:34;;;;;;;8.7;12.3;;;;;;;5.9;82;97770;;;;
2021/11/03 02:54:34;;;;;;;8.7;12.3;;;;;;;5.9;82.1;97770;;;;
2021/11/03 03:05:34;;;;;;;7.3;10.4;;;;;;;5.8;81.4;97760;;;;
2021/11/03 03:15:34;;;;;;;7.3;10.4;;;;;;;5.8;81.9;97760;;;;
2021/11/03 03:25:34;;;;;;;7.3;10.4;;;;;;;5.8;81.8;97770;;;;
2021/11/03 03:35:34;;;;;;;6.2;8.8;;;;;;;5.8;81.6;97780;;;;
2021/11/03 03:45:34;;;;;;;6.2;8.8;;;;;;;6.2;81.6;97780;;;;
2021/11/03 03:55:34;;;;;;;6.2;8.8;;;;;;;6.4;80.8;97780;;;;
2021/11/03 04:05:34;;;;;;;5.1;7.8;;;;;;;6.6;79.8;97800;;;;
2021/11/03 04:15:34;;;;;;;5.1;7.8;;;;;;;6.6;79.6;97810;;;;
2021/11/03 04:25:34;;;;;;;5.1;7.8;;;;;;;6.5;79.3;97820;;;;
2021/11/03 04:35:34;;;;;;;4.1;6.8;;;;;;;6.2;79.5;97830;;;;
2021/11/03 04:45:34;;;;;;;4.1;6.8;;;;;;;6;80.1;97830;;;;
2021/11/03 04:55:34;;;;;;;4.1;6.8;;;;;;;6.2;79.6;97830;;;;
2021/11/03 05:05:34;;;;;;;4.6;6.9;;;;;;;6.2;79.1;97840;;;;
2021/11/03 05:15:34;;;;;;;4.6;6.9;;;;;;;6;79;97840;;;;
2021/11/03 05:25:34;;;;;;;4.6;6.9;;;;;;;5.6;78.9;97850;;;;
2021/11/03 05:35:34;;;;;;;4.5;7.2;;;;;;;5.4;79.2;97840;;;;
2021/11/03 05:45:34;;;;;;;4.5;7.2;;;;;;;5.4;80;97840;;;;
2021/11/03 05:55:34;;;;;;;4.5;7.2;;;;;;;5.6;79.9;97850;;;;
2021/11/03 06:05:34;;;;;;;2.8;4.6;;;;;;;5.4;79.8;97860;;;;
2021/11/03 06:15:34;;;;;;;2.8;4.6;;;;;;;5.5;80.5;97870;;;;
2021/11/03 06:25:34;;;;;;;2.8;4.6;;;;;;;5.8;80.3;97890;;;;
2021/11/03 06:35:34;;;;;;;3.2;5;;;;;;;6.4;78.7;97900;;;;
2021/11/03 06:45:34;;;;;;;3.2;5;;;;;;;6.8;77.6;97930;;;;
2021/11/03 06:55:34;;;;;;;3.2;5;;;;;;;7;77.2;97920;;;;
2021/11/03 07:05:34;;;;;;;3.1;6.2;;;;;;;7.2;77.6;97930;;;;
2021/11/03 07:15:34;;;;;;;3.1;6.2;;;;;;;7.5;77;97940;;;;
2021/11/03 07:25:34;;;;;;;;;;;;;;;;;;;;;
2021/11/03 07:36:34;;;;;;;;;;;;;;;;;;;;;
2021/11/03 07:46:34;;;;;;;6.8;8.1;;;;;;;8.4;75.8;97970;;;;
2021/11/03 07:56:34;;;;;;;6.8;8.1;;;;;;;8.9;73.3;97980;;;;
2021/11/03 08:07:34;;;;;;;6.8;8.1;;;;;;;9.2;70.3;97990;;;;
2021/11/03 08:17:34;;;;;;;3;4.7;;;;;;;9.5;71;98000;;;;
2021/11/03 08:27:34;;;;;;;3;4.7;;;;;;;9.8;68.9;98010;;;;
2021/11/03 08:37:34;;;;;;;3;4.7;;;;;;;10;66.9;98000;;;;
2021/11/03 08:47:34;;;;;;;2.7;6.7;;;;;;;10.4;69.1;98000;;;;
2021/11/03 08:57:34;;;;;;;2.7;6.7;;;;;;;10.6;66.8;98000;;;;
2021/11/03 09:07:35;;;;;;;2.7;6.7;;;;;;;11;66.9;98000;;;;
2021/11/03 09:17:34;;;;;;;2.2;4.7;;;;;;;11.2;63.9;98000;;;;
2021/11/03 09:27:34;;;;;;;2.2;4.7;;;;;;;11.7;65.3;98000;;;;
2021/11/03 09:37:37;;;;;;;2.2;4.7;;;;;;;12.1;61.9;97990;;;;
2021/11/03 09:47:34;;;;;;;1.7;3.7;;;;;;;12.4;61.6;97980;;;;
2021/11/03 09:57:35;;;;;;;1.7;3.7;;;;;;;12.7;61.2;97970;;;;
2021/11/03 10:07:34;;;;;;;1.7;3.7;;;;;;;12.9;60.4;97970;;;;
2021/11/03 10:17:34;;;;;;;1.9;3.9;;;;;;;13.3;57.7;97980;;;;
2021/11/03 10:27:34;;;;;;;1.9;3.9;;;;;;;13.6;57.3;97970;;;;
2021/11/03 10:37:35;;;;;;;1.9;3.9;;;;;;;14;57.3;97960;;;;
2021/11/03 10:47:34;;;;;;;1.4;3.7;;;;;;;14.4;56.7;97950;;;;
2021/11/03 10:57:34;;;;;;;1.4;3.7;;;;;;;14.7;54.9;97930;;;;
2021/11/03 11:07:34;;;;;;;1.4;3.7;;;;;;;14.8;54.8;97930;;;;
2021/11/03 11:17:34;;;;;;;1.5;3.3;;;;;;;14.8;55.6;97920;;;;
2021/11/03 11:27:34;;;;;;;1.5;3.3;;;;;;;14.9;52.5;97930;;;;
2021/11/03 11:37:34;;;;;;;1.5;3.3;;;;;;;14.8;50.3;97900;;;;
2021/11/03 11:47:34;;;;;;;1;3;;;;;;;14.9;50.6;97900;;;;
2021/11/03 11:57:36;;;;;;;1;3;;;;;;;15.2;50.7;97900;;;;
2021/11/03 12:07:34;;;;;;;1;3;;;;;;;14.7;51.3;97900;;;;
2021/11/03 12:17:34;;;;;;;1;2;;;;;;;15;50.4;97900;;;;
2021/11/03 12:27:35;;;;;;;1;2;;;;;;;15.3;52.9;97910;;;;
2021/11/03 12:37:34;;;;;;;1;2;;;;;;;15.4;49.2;97900;;;;
2021/11/03 12:47:34;;;;;;;1.3;2.7;;;;;;;15.1;49.5;97910;;;;
2021/11/03 12:57:34;;;;;;;1.3;2.7;;;;;;;14.7;50.3;97910;;;;
2021/11/03 13:07:34;;;;;;;1.3;2.7;;;;;;;14.5;52.7;97910;;;;
2021/11/03 13:17:34;;;;;;;11;15.2;;;;;;;14.7;53;97910;;;;
2021/11/03 13:27:34;;;;;;;11;15.2;;;;;;;15.1;52.1;97910;;;;
2021/11/03 13:37:34;;;;;;;11;15.2;;;;;;;15.6;51;97900;;;;
2021/11/03 13:47:36;;;;;;;1.3;2.7;;;;;;;15.1;50.2;97890;;;;
2021/11/03 13:58:34;;;;;;;1.3;2.7;;;;;;;15.1;50.6;97890;;;;
2021/11/03 14:08:34;;;;;;;1.3;2.7;;;;;;;14.4;50.9;97900;;;;
2021/11/03 14:18:34;;;;;;;1.2;2.5;;;;;;;14;53;97900;;;;
2021/11/03 14:28:34;;;;;;;1.2;2.5;;;;;;;13.5;54.3;97880;;;;
2021/11/03 14:39:34;;;;;;;1.2;2.5;;;;;;;13;55.5;97890;;;;
2021/11/03 14:49:35;;;;;;;1.5;3.1;;;;;;;12.7;56.6;97900;;;;
2021/11/03 14:59:34;;;;;;;1.5;3.1;;;;;;;12.2;58.5;97870;;;;
2021/11/03 15:09:34;;;;;;;1.5;3.1;;;;;;;11.7;59.7;97860;;;;
2021/11/03 15:20:34;;;;;;;3.4;6.2;;;;;;;11.3;61.6;97860;;;;
2021/11/03 15:30:34;;;;;;;3.4;6.2;;;;;;;11.2;62.7;97880;;;;
2021/11/03 15:40:34;;;;;;;3.4;6.2;;;;;;;11.1;64.2;97880;;;;
2021/11/03 15:50:34;;;;;;;6.2;9.3;;;;;;;11.1;64.6;97870;;;;
2021/11/03 16:00:34;;;;;;;6.2;9.3;;;;;;;11;65.3;97880;;;;
2021/11/03 16:10:34;;;;;;;6.2;9.3;;;;;;;11;65.6;97880;;;;
2021/11/03 16:20:34;;;;;;;8.5;12.4;;;;;;;11.1;65.3;97870;;;;
2021/11/03 16:30:34;;;;;;;8.5;12.4;;;;;;;11.1;65.1;97890;;;;
2021/11/03 16:40:34;;;;;;;8.5;12.4;;;;;;;11.1;65.5;97890;;;;
2021/11/03 16:50:34;;;;;;;10.6;18;;;;;;;11.1;65.4;97900;;;;
2021/11/03 17:00:34;;;;;;;10.6;18;;;;;;;11.2;65.3;97900;;;;
2021/11/03 17:10:34;;;;;;;10.6;18;;;;;;;11.3;64.7;97900;;;;
2021/11/03 17:20:34;;;;;;;17.2;24.4;;;;;;;11.3;64.3;97900;;;;
2021/11/03 17:30:34;;;;;;;17.2;24.4;;;;;;;10.9;65.4;97910;;;;
2021/11/03 17:40:34;;;;;;;17.2;24.4;;;;;;;10.6;65.6;97910;;;;
2021/11/03 17:50:34;;;;;;;11.9;15.7;;;;;;;10.2;66.8;97900;;;;
2021/11/03 18:00:34;;;;;;;11.9;15.7;;;;;;;9.8;68.1;97900;;;;
2021/11/03 18:11:34;;;;;;;11.9;15.7;;;;;;;9.5;68.8;97900;;;;
2021/11/03 18:21:34;;;;;;;13.6;17.5;;;;;;;9.3;69.5;97880;;;;
2021/11/03 18:31:34;;;;;;;13.6;17.5;;;;;;;9.2;69.4;97890;;;;
2021/11/03 18:42:39;;;;;;;13.6;17.5;;;;;;;9;69.5;97880;;;;
2021/11/03 18:52:35;;;;;;;13.8;16.6;;;;;;;8.9;69;97890;;;;
2021/11/03 19:02:35;;;;;;;13.8;16.6;;;;;;;8.8;68.9;97880;;;;
2021/11/03 19:12:34;;;;;;;13.8;16.6;;;;;;;8.8;69.1;97880;;;;
2021/11/03 19:22:34;;;;;;;14.3;18.6;;;;;;;8.7;69;97870;;;;
2021/11/03 19:32:34;;;;;;;14.3;18.6;;;;;;;8.7;68.9;97890;;;;
2021/11/03 19:42:34;;;;;;;14.3;18.6;;;;;;;8.7;68.8;97900;;;;
2021/11/03 19:52:34;;;;;;;7.4;10.1;;;;;;;8.7;68.9;97900;;;;
2021/11/03 20:02:34;;;;;;;7.4;10.1;;;;;;;8.7;68.8;97890;;;;
2021/11/03 20:12:35;;;;;;;7.4;10.1;;;;;;;8.7;69.1;97880;;;;
2021/11/03 20:22:34;;;;;;;9.5;14;;;;;;;8.7;69.2;97870;;;;
2021/11/03 20:32:34;;;;;;;9.5;14;;;;;;;8.8;69.3;97860;;;;
2021/11/03 20:42:35;;;;;;;7.1;9.8;;;;;;;8.9;69.2;97870;;;;
2021/11/03 20:52:34;;;;;;;7.1;9.8;;;;;;;9;69.4;97870;;;;
2021/11/03 21:02:34;;;;;;;7.1;9.8;;;;;;;9;69.5;97880;;;;
2021/11/03 21:12:34;;;;;;;7.7;10.8;;;;;;;9.1;69.8;97870;;;;
2021/11/03 21:22:34;;;;;;;7.7;10.8;;;;;;;9.2;70;97870;;;;
2021/11/03 21:33:34;;;;;;;7.7;10.8;;;;;;;9.3;70.2;97880;;;;
2021/11/03 21:43:35;;;;;;;7.9;11.2;;;;;;;9.4;70;97890;;;;
2021/11/03 21:53:34;;;;;;;7.9;11.2;;;;;;;9.4;70;97900;;;;
2021/11/03 22:03:34;;;;;;;7.9;11.2;;;;;;;9.5;69.9;97900;;;;
2021/11/03 22:13:34;;;;;;;6.8;9;;;;;;;9.6;70.3;97900;;;;
2021/11/03 22:23:34;;;;;;;6.8;9;;;;;;;9.7;70.2;97900;;;;
2021/11/03 22:34:34;;;;;;;6.8;9;;;;;;;9.7;70.8;97880;;;;
2021/11/03 22:44:34;;;;;;;9.3;12.5;;;;;;;9.6;71.6;97870;;;;
2021/11/03 22:54:34;;;;;;;9.3;12.5;;;;;;;9.4;73.9;97880;;;;
2021/11/03 23:04:34;;;;;;;9.3;12.5;;;;;;;9.3;75.4;97890;;;;
2021/11/03 23:14:35;;;;;;;10.4;13.8;;;;;;;9.2;76.7;97890;;;;
2021/11/03 23:24:34;;;;;;;10.4;13.8;;;;;;;9.1;77.6;97840;;;;
2021/11/03 23:35:35;;;;;;;10.2;15.9;;;;;;;9.1;77.5;97830;;;;
2021/11/03 23:46:34;;;;;;;10.2;15.9;;;;;;;9.1;77.6;97820;;;;
2021/11/03 23:56:34;;;;;;;10.2;15.9;;;;;;;9;78.1;97820;;;;
